createdAt,value
2023-03-07T00:01:30.138Z,1.81
2023-03-07T00:06:57.509Z,1.74
2023-03-07T00:12:25.568Z,1.76
2023-03-07T00:17:53.253Z,1.80
2023-03-07T00:23:20.177Z,1.84
2023-03-07T00:28:49.376Z,1.84
2023-03-07T00:34:16.224Z,1.88
2023-03-07T00:39:43.523Z,1.94
2023-03-07T00:45:11.567Z,1.93
2023-03-07T00:50:39.247Z,1.86
2023-03-07T00:56:12.508Z,1.76
2023-03-07T01:01:41.060Z,1.68
2023-03-07T01:07:08.517Z,1.63
2023-03-07T01:12:36.757Z,1.54
2023-03-07T01:18:09.280Z,1.43
2023-03-07T01:23:36.467Z,1.34
2023-03-07T01:29:05.799Z,1.33
2023-03-07T01:34:37.318Z,1.25
2023-03-07T01:40:05.224Z,1.01
2023-03-07T01:45:35.318Z,0.76
2023-03-07T01:51:04.615Z,0.67
2023-03-07T01:56:32.883Z,0.64
2023-03-07T02:02:07.087Z,0.64
2023-03-07T02:07:41.076Z,0.64
2023-03-07T02:13:09.338Z,0.65
2023-03-07T02:18:42.954Z,0.67
2023-03-07T02:24:32.556Z,0.78
2023-03-07T02:29:59.562Z,0.88
2023-03-07T02:35:28.084Z,0.90
2023-03-07T02:41:00.862Z,0.82
2023-03-07T02:46:29.246Z,0.73
2023-03-07T02:52:00.794Z,0.65
2023-03-07T02:57:29.762Z,0.53
2023-03-07T03:02:57.922Z,0.41
2023-03-07T03:08:25.750Z,0.23
2023-03-07T03:13:53.617Z,-0.04
2023-03-07T03:19:20.970Z,-0.29
2023-03-07T03:24:48.942Z,-0.54
2023-03-07T03:30:18.720Z,-0.76
2023-03-07T03:35:46.861Z,-0.89
2023-03-07T03:41:18.282Z,-0.97
2023-03-07T03:46:48.865Z,-1.03
2023-03-07T03:52:18.360Z,-1.12
2023-03-07T03:57:45.756Z,-1.24
2023-03-07T04:03:13.000Z,-1.24
2023-03-07T04:08:41.980Z,-1.21
2023-03-07T04:14:10.018Z,-1.29
2023-03-07T04:19:38.555Z,-1.31
2023-03-07T04:25:08.502Z,-1.28
2023-03-07T04:30:37.034Z,-1.06
2023-03-07T04:36:06.036Z,-0.86
2023-03-07T04:41:35.253Z,-0.66
2023-03-07T04:47:16.195Z,-0.43
2023-03-07T04:52:44.224Z,-0.23
2023-03-07T04:58:13.724Z,-0.14
2023-03-07T05:03:45.362Z,-0.08
2023-03-07T05:09:14.105Z,-0.04
2023-03-07T05:14:40.908Z,-0.02
2023-03-07T05:20:10.639Z,-0.09
2023-03-07T05:25:37.794Z,-0.15
2023-03-07T05:31:05.371Z,-0.12
2023-03-07T05:36:32.875Z,-0.10
2023-03-07T05:42:00.070Z,-0.13
2023-03-07T05:47:30.612Z,-0.14
2023-03-07T05:52:58.310Z,0.19
2023-03-07T05:58:29.046Z,0.84
2023-03-07T06:03:56.107Z,1.33
2023-03-07T06:09:23.804Z,1.61
2023-03-07T06:14:50.896Z,1.77
2023-03-07T06:20:21.075Z,1.96
2023-03-07T06:25:49.355Z,2.13
2023-03-07T06:31:19.633Z,2.17
2023-03-07T06:36:48.778Z,2.47
2023-03-07T06:42:17.297Z,3.39
2023-03-07T06:47:45.266Z,4.69
2023-03-07T06:53:12.378Z,6.50
2023-03-07T06:58:40.499Z,7.98
2023-03-07T07:04:11.650Z,8.68
2023-03-07T07:09:41.385Z,9.37
2023-03-07T07:15:10.265Z,10.60
2023-03-07T07:20:37.757Z,11.10
2023-03-07T07:26:05.586Z,11.35
2023-03-07T07:31:33.405Z,11.10
2023-03-07T07:37:01.297Z,11.75
2023-03-07T07:42:30.221Z,12.16
2023-03-07T07:48:08.021Z,12.55
2023-03-07T07:53:36.270Z,12.60
2023-03-07T07:59:03.791Z,12.39
2023-03-07T08:04:31.408Z,12.91
2023-03-07T08:09:58.287Z,14.37
2023-03-07T08:15:25.816Z,15.41
2023-03-07T08:20:53.324Z,15.38
2023-03-07T08:26:21.092Z,15.61
2023-03-07T08:31:53.765Z,16.08
2023-03-07T08:37:21.390Z,16.10
2023-03-07T08:42:48.628Z,14.92
2023-03-07T08:48:15.894Z,15.78
2023-03-07T08:53:44.735Z,16.47
2023-03-07T08:59:12.625Z,16.26
2023-03-07T09:04:39.880Z,16.68
2023-03-07T09:10:08.025Z,16.00
2023-03-07T09:15:39.246Z,15.04
2023-03-07T09:21:06.811Z,14.78
2023-03-07T09:26:33.972Z,14.70
2023-03-07T09:32:04.090Z,15.05
2023-03-07T09:37:31.720Z,14.75
2023-03-07T09:43:17.309Z,13.88
2023-03-07T09:49:15.946Z,12.86
2023-03-07T09:54:53.645Z,13.49
2023-03-07T10:00:30.017Z,13.10
2023-03-07T10:06:02.438Z,12.65
2023-03-07T10:11:39.042Z,12.45
2023-03-07T10:17:43.716Z,12.13
2023-03-07T10:23:39.038Z,12.05
2023-03-07T10:29:19.457Z,11.57
2023-03-07T10:34:55.027Z,11.64
2023-03-07T10:40:48.993Z,11.72
2023-03-07T10:47:13.583Z,12.15
2023-03-07T10:52:49.156Z,11.48
2023-03-07T10:58:27.253Z,11.93
2023-03-07T11:04:06.177Z,11.76
2023-03-07T11:09:36.003Z,11.33
2023-03-07T11:15:08.979Z,11.04
2023-03-07T11:20:49.590Z,11.20
2023-03-07T11:26:22.779Z,11.12
2023-03-07T11:32:11.221Z,10.67
2023-03-07T11:38:00.027Z,10.35
2023-03-07T11:43:58.335Z,10.45
2023-03-07T11:49:46.043Z,10.50
2023-03-07T11:55:41.697Z,10.27
2023-03-07T12:01:47.469Z,10.58
2023-03-07T12:07:43.916Z,11.15
2023-03-07T12:13:24.631Z,11.38
2023-03-07T12:19:07.332Z,11.40
2023-03-07T12:24:55.333Z,11.43
2023-03-07T12:30:32.122Z,11.62
2023-03-07T12:36:09.155Z,11.21
2023-03-07T12:41:48.475Z,10.95
2023-03-07T12:47:48.495Z,10.81
2023-03-07T12:53:38.513Z,10.73
2023-03-07T12:59:18.370Z,11.01
2023-03-07T13:04:45.559Z,11.26
2023-03-07T13:10:19.968Z,11.11
2023-03-07T13:16:04.514Z,11.22
2023-03-07T13:21:33.492Z,11.13
2023-03-07T13:27:00.526Z,11.01
2023-03-07T13:32:50.328Z,10.91
2023-03-07T13:38:44.559Z,10.80
2023-03-07T13:44:37.662Z,10.42
2023-03-07T13:50:45.573Z,10.30
2023-03-07T13:56:25.020Z,10.85
2023-03-07T14:01:57.929Z,10.82
2023-03-07T14:07:28.353Z,10.53
2023-03-07T14:13:27.135Z,10.48
2023-03-07T14:19:23.800Z,10.24
2023-03-07T14:25:14.388Z,9.85
2023-03-07T14:30:41.993Z,9.73
2023-03-07T14:36:22.114Z,9.65
2023-03-07T14:42:06.849Z,9.64
2023-03-07T14:47:52.005Z,9.61
2023-03-07T14:53:26.307Z,9.39
2023-03-07T14:58:59.348Z,9.20
2023-03-07T15:04:33.304Z,9.06
2023-03-07T15:10:00.736Z,8.91
2023-03-07T15:15:34.037Z,8.81
2023-03-07T15:21:04.775Z,8.66
2023-03-07T15:26:33.432Z,8.43
2023-03-07T15:32:07.520Z,8.31
2023-03-07T15:37:50.556Z,8.26
2023-03-07T15:43:29.143Z,8.14
2023-03-07T15:48:56.593Z,8.03
2023-03-07T15:54:44.177Z,7.92
2023-03-07T16:00:30.413Z,7.80
2023-03-07T16:06:01.083Z,7.60
2023-03-07T16:11:28.792Z,7.42
2023-03-07T16:17:03.304Z,7.29
2023-03-07T16:22:31.574Z,7.16
2023-03-07T16:28:03.099Z,7.08
2023-03-07T16:33:32.346Z,6.97
2023-03-07T16:39:01.096Z,6.85
2023-03-07T16:44:30.130Z,6.80
2023-03-07T16:49:59.756Z,6.71
2023-03-07T16:55:28.086Z,6.60
2023-03-07T17:00:59.610Z,6.53
2023-03-07T17:06:38.831Z,6.44
2023-03-07T17:12:08.610Z,6.33
2023-03-07T17:17:37.088Z,6.24
2023-03-07T17:23:05.743Z,6.18
2023-03-07T17:28:33.911Z,6.19
2023-03-07T17:34:01.852Z,6.10
2023-03-07T17:39:30.448Z,6.06
2023-03-07T17:44:58.031Z,6.02
2023-03-07T17:50:25.342Z,6.00
2023-03-07T17:55:53.367Z,6.00
2023-03-07T18:01:21.373Z,5.98
2023-03-07T18:06:49.080Z,5.96
2023-03-07T18:12:16.795Z,6.00
2023-03-07T18:17:48.175Z,6.01
2023-03-07T18:23:16.770Z,6.02
2023-03-07T18:28:46.920Z,6.00
2023-03-07T18:34:14.241Z,5.96
2023-03-07T18:39:41.228Z,5.99
2023-03-07T18:45:12.320Z,6.00
2023-03-07T18:50:40.408Z,5.96
2023-03-07T18:56:14.443Z,5.93
2023-03-07T19:01:45.205Z,5.90
2023-03-07T19:07:13.612Z,5.92
2023-03-07T19:12:41.161Z,5.89
2023-03-07T19:18:11.015Z,5.87
2023-03-07T19:23:40.994Z,5.80
2023-03-07T19:29:11.576Z,5.80
2023-03-07T19:34:39.579Z,5.77
2023-03-07T19:40:11.756Z,5.79
2023-03-07T19:45:40.837Z,5.83
2023-03-07T19:51:17.924Z,5.83
2023-03-07T19:56:46.634Z,5.83
2023-03-07T20:02:14.961Z,5.84
2023-03-07T20:07:42.335Z,5.82
2023-03-07T20:13:10.579Z,5.82
2023-03-07T20:18:40.134Z,5.79
2023-03-07T20:24:08.211Z,5.80
2023-03-07T20:29:38.857Z,5.78
2023-03-07T20:35:08.009Z,5.79
2023-03-07T20:40:36.538Z,5.74
2023-03-07T20:46:12.281Z,5.71
2023-03-07T20:51:41.750Z,5.75
2023-03-07T20:57:09.642Z,5.74
2023-03-07T21:02:36.714Z,5.77
2023-03-07T21:08:03.959Z,5.78
2023-03-07T21:13:36.193Z,5.82
2023-03-07T21:19:07.531Z,5.84
2023-03-07T21:24:36.174Z,5.90
2023-03-07T21:30:04.747Z,5.89
2023-03-07T21:35:37.113Z,5.50
2023-03-07T21:41:05.872Z,5.21
2023-03-07T21:46:34.039Z,4.81
2023-03-07T21:52:01.725Z,4.43
2023-03-07T21:57:29.866Z,4.35
2023-03-07T22:02:58.770Z,4.24
2023-03-07T22:08:25.888Z,4.09
2023-03-07T22:13:53.339Z,4.01
2023-03-07T22:19:20.497Z,3.97
2023-03-07T22:24:51.525Z,3.93
2023-03-07T22:30:19.304Z,3.94
2023-03-07T22:35:57.546Z,3.91
2023-03-07T22:41:25.675Z,3.86
2023-03-07T22:46:54.231Z,3.76
2023-03-07T22:52:22.073Z,3.61
2023-03-07T22:57:49.826Z,3.52
2023-03-07T23:03:17.174Z,3.44
2023-03-07T23:08:46.285Z,3.31
2023-03-07T23:14:13.978Z,3.22
2023-03-07T23:19:41.061Z,3.14
2023-03-07T23:25:11.365Z,3.05
2023-03-07T23:30:40.393Z,3.05
2023-03-07T23:36:07.760Z,2.99
2023-03-07T23:41:34.937Z,2.98
2023-03-07T23:47:02.375Z,2.94
2023-03-07T23:52:30.134Z,2.90
2023-03-07T23:57:57.988Z,2.82
